Terminal Aerodrome Forecast
Issued by NWS

Home | Current Version | Previous Version | Text Only | Print | Product List | Glossary On
Versions: 1 2 3 4 5 6 7 8 9 10 11 12 13
728
FTUS44 KEPZ 262332
TAFTCS
TAF
KTCS 262332Z 2700/2724 03010KT P6SM BKN250
     FM270100 07012KT P6SM BKN250
     FM270300 07021G28KT P6SM BKN250
     FM271000 07012KT P6SM SCT060 BKN100 OVC250
     FM271500 07010KT P6SM SCT060 BKN100 OVC250
     FM272100 12008KT P6SM SCT060 BKN100 BKN250=

USA.gov is the U.S. government's official web portal to all federal, state and local government web resources and services.